Sweet Home, Texas
Current Conditions -  °F | °C
As of 3:15 PM on Sunday 23 Nov 2014 (Local Time) from KT20 Reporting Station
Clear Clear  
Wind Chill: 27°   Ceiling: Unl
Heat Index: 27°   Visibility: 10mi
Dew Point:   Wind: 14mph
Humidity: 32%   Direction: 240°WSW
Pressure: 29.55"   Gusts: 17mph
Location:  29.35°N, 97.07°W
Report Text: KT20 232115Z AUTO 24012G15KT 10SM CLR 27/09 A2955 RMK AO2 T02730094
Loading
Personal Weather Stations






























Interactive Weather Map New forecast layout! Learn more

10-Day Weather Forecast

Advertisements
Track Severe Weather on mobile